This Website is in Experimental format. - By use of this site you understand the Terms of Service

Overall Pressure and Temp Fo

24 Hour Pressure and Temp Fo
Weather Index
Time Temp Pressure Humidity
Thu, Apr 19, 2018 at 8:00 PM ( 52.664℉ )- ( 11.48℃ ) 1015 - (1.75) 49%
Thu, Apr 19, 2018 at 7:00 PM ( 59.414℉ )- ( 15.23℃ ) 1015 - (1.75) 22%
Thu, Apr 19, 2018 at 6:00 PM ( 60.53℉ )- ( 15.85℃ ) 1015 - (1.75) 17%
Thu, Apr 19, 2018 at 5:00 PM ( 62.636℉ )- ( 17.02℃ ) 1016 - (2.75) 16%
Thu, Apr 19, 2018 at 4:00 PM ( 61.16℉ )- ( 16.2℃ ) 1017 - (3.75) 18%
Thu, Apr 19, 2018 at 3:00 PM ( 60.404℉ )- ( 15.78℃ ) 1018 - (4.75) 17%
Thu, Apr 19, 2018 at 2:00 PM ( 60.764℉ )- ( 15.98℃ ) 1019 - (5.75) 17%
Thu, Apr 19, 2018 at 1:00 PM ( 57.182℉ )- ( 13.99℃ ) 1021 - (7.75) 18%
Thu, Apr 19, 2018 at 12:00 PM ( 53.546℉ )- ( 11.97℃ ) 1022 - (8.75) 18%
Thu, Apr 19, 2018 at 11:00 AM ( 32℉ )- ( ℃ ) - (-1013.25) %
Thu, Apr 19, 2018 at 10:00 AM ( 46.976℉ )- ( 8.32℃ ) 1025 - (11.75) 28%
Thu, Apr 19, 2018 at 9:00 AM ( 32℉ )- ( ℃ ) - (-1013.25) %
Thu, Apr 19, 2018 at 8:00 AM ( 36.716℉ )- ( 2.62℃ ) 1025 - (11.75) 41%
Thu, Apr 19, 2018 at 7:00 AM ( 32.234℉ )- ( 0.13℃ ) 1026 - (12.75) 51%
Thu, Apr 19, 2018 at 6:00 AM ( 29.57℉ )- ( -1.35℃ ) 1027 - (13.75) 79%
Thu, Apr 19, 2018 at 5:00 AM ( 30.452℉ )- ( -0.86℃ ) 1025 - (11.75) 55%
Thu, Apr 19, 2018 at 4:00 AM ( 32℉ )- ( ℃ ) - (-1013.25) %
Thu, Apr 19, 2018 at 3:00 AM ( 32.576℉ )- ( 0.32℃ ) 1026 - (12.75) 63%
Thu, Apr 19, 2018 at 2:00 AM ( 34.664℉ )- ( 1.48℃ ) 1025 - (11.75) 51%
Thu, Apr 19, 2018 at 1:00 AM ( 34.682℉ )- ( 1.49℃ ) 1026 - (12.75) 57%


Temp Data Info
All Data is Loveland Colorado. Over time ill expand to more cities however right now i want to collect the data.

Live Data

52.664° F

1015 Pressure

49% Humidity

1013.25 Is Avarage Sea Level Pressure.
The Differental is 1.75
Max Temp Prediction: 59°F
Min Temp Prediction: 46.4°F

Records
The Highest Record Temp Set here is:

49.946°F

What is Weather ID?
WeatherID is a 24 hour intiger system that allows a restful rotation of weather information per day. This is designed to prevent the need for multiple cron processes on a website.